Orlando Executive Airport

About
Name: Orlando Executive Airport
Identifier:  ORL/KORL
Serves:  Orlando, Florida
Owner:  Greater Orlando Aviation Authority
Public/Private:  Public
Local Time:  18. Sep 02:59 EDT
Description: Orlando Executive Airport is a public airport three miles east of downtown Orlando, in Orange County, Florida. It is owned and operated by the Greater Orlando Aviation Authority and serves general aviation.
Source: Wikipedia
Location
Runways
Identifier Length (m/ft) Surface
7/25 6,004/6,004 Asphalt
13/31 4,625/4,625 Asphalt
Statistics
Flights per Day:
0 flights
Distance: 1,417km (880mi)
Flights delayed:
50% (0 flights per day delayed)
Delay Average: 137 minutes
Current Weather
 26 C (Humidity: 78%)
  4kt (7km/h / 4mph) from 30°
  16km (10 mi.)
 
 METAR KORL 180353Z AUTO 03004KT 10SM CLR 26/22 A2997 RMK AO2 SLP150 T02610217

Current Delays

Departures
N/A
Arrivals
N/A

Destinations

Top Destinations
Airport Flights
per week
Seats
per week
  St. Louis (SUS) 1 - 0 0
  Miami (OPF) 0 - 0 0
  Panama City (ECP) 0 - 0 0
  Rock Sound (RSD) 0 - 0 0
  Tampa (TPA) 0 - 0 0
  Cincinnati (LUK) 0 - 0 0
  Nassau (NAS) 0 - 0 0

Airlines & Planes

Top Airlines
Airline Flights
per Day
Seats
per Day
Airnet 0 -
Gama Aviation 0 -
  Centennial Airlines 0 -
Top Plane Types
Model Flights Seats
Learjet 35A 0.2/day - 0
Beech B300 Super King Air 350 0.1/day - 0
Pilatus PC-12 0.1/day - 0